Time;durP1;ratioP1;P1;durP2;ratioP2;P2;SDS_P1;SDS_P2;PMS_P1;PMS_P2;Temp;Humidity;BMP_temperature;BMP_pressure;BME280_temperature;BME280_humidity;BME280_pressure;Samples;Min_cycle;Max_cycle;Signal;HPM_P1;HPM_P2
2023/04/09 17:19:14;;;;;;;;;;;;;;;;;;5109993;27;7512;-73
2023/04/09 17:21:39;;;;;;;;;;;;;;;;;;5109653;28;7531;-75
2023/04/09 17:24:04;;;;;;;;;;;;;;;;;;5110128;28;7520;-73
2023/04/09 17:26:30;;;;;;;;;;;;;;;;;;5108611;28;7963;-73
2023/04/09 17:28:55;;;;;;;;;;;;;;;;;;5114711;28;7670;-73
2023/04/09 17:31:22;;;;;;;;;;;;;;;;;;5109828;27;7567;-81
2023/04/09 17:33:48;;;;;;;;;;;;;;;;;;5109185;28;7631;-77
2023/04/09 17:36:13;;;;;;;;;;;;;;;;;;5109639;28;7520;-76
2023/04/09 17:38:38;;;;;;;;;;;;;;;;;;5109862;28;7531;-75
2023/04/09 17:41:03;;;;;;;;;;;;;;;;;;5079940;28;9468;-75
2023/04/09 17:43:28;;;;;;;;;;;;;;;;;;5067755;28;7527;-73
2023/04/09 17:45:54;;;;;;;;;;;;;;;;;;5058786;28;7686;-72
2023/04/09 17:48:19;;;;;;;;;;;;;;;;;;5050617;28;7555;-71
2023/04/09 17:50:44;;;;;;;;;;;;;;;;;;5048521;28;7552;-71
2023/04/09 17:53:10;;;;;;;;;;;;;;;;;;5047754;28;7552;-73
2023/04/09 17:55:35;;;;;;;;;;;;;;;;;;5059338;22;7611;-67
2023/04/09 17:58:00;;;;;;;;;;;;;;;;;;5045117;28;7647;-70
2023/04/09 18:00:26;;;;;;;;;;;;;;;;;;5035216;28;7538;-68
2023/04/09 18:02:51;;;;;;;;;;;;;;;;;;5026899;28;7526;-69
2023/04/09 18:05:16;;;;;;;;;;;;;;;;;;5025820;28;7525;-68
2023/04/09 18:07:41;;;;;;;;;;;;;;;;;;5026836;28;7525;-68
2023/04/09 18:10:06;;;;;;;;;;;;;;;;;;5028599;28;7541;-69
2023/04/09 18:12:32;;;;;;;;;;;;;;;;;;5046739;28;7521;-69
2023/04/09 18:14:57;;;;;;;;;;;;;;;;;;5045788;28;7524;-69
2023/04/09 18:17:22;;;;;;;;;;;;;;;;;;5066392;28;7990;-69
2023/04/09 18:19:47;;;;;;;;;;;;;;;;;;5055330;28;7517;-68
2023/04/09 18:22:13;;;;;;;;;;;;;;;;;;5026745;28;7525;-69
2023/04/09 18:26:02;;;;;;;;;;;;;;;;;;5087109;28;7541;-69
2023/04/09 18:29:34;;;;;;;;;;;;;;;;;;5067855;27;9580;-70
2023/04/09 18:32:00;;;;;;;;;;;;;;;;;;5065168;28;9622;-70
2023/04/09 18:34:25;;;;;;;;;;;;;;;;;;5067364;28;7811;-68
2023/04/09 18:36:50;;;;;;;;;;;;;;;;;;5077977;28;7520;-69
2023/04/09 18:39:15;;;;;;;;;;;;;;;;;;5067477;28;7540;-71
2023/04/09 18:41:40;;;;;;;;;;;;;;;;;;5063718;28;7541;-73
2023/04/09 18:44:06;;;;;;;;;;;;;;;;;;5063292;28;7517;-69
2023/04/09 18:46:31;;;;;;;;;;;;;;;;;;5063999;28;7528;-69
2023/04/09 18:48:56;;;;;;;;;;;;;;;;;;5064256;28;7543;-70
2023/04/09 18:51:21;;;;;;;;;;;;;;;;;;5066977;28;7520;-73
2023/04/09 18:53:51;;;;;;;;;;;;;;;;;;5065256;28;7525;-71
2023/04/09 18:56:16;;;;;;;;;;;;;;;;;;5077909;28;7529;-69
2023/04/09 18:58:41;;;;;;;;;;;;;;;;;;5087078;28;7536;-68
2023/04/09 19:01:07;;;;;;;;;;;;;;;;;;5083916;28;7955;-71
2023/04/09 19:03:32;;;;;;;;;;;;;;;;;;5066638;28;7562;-71
2023/04/09 19:05:58;;;;;;;;;;;;;;;;;;5066821;28;7532;-73
2023/04/09 19:08:24;;;;;;;;;;;;;;;;;;5067066;28;7541;-72
2023/04/09 19:10:49;;;;;;;;;;;;;;;;;;5067021;28;7520;-72
2023/04/09 19:13:15;;;;;;;;;;;;;;;;;;5064813;28;7548;-75
2023/04/09 19:15:40;;;;;;;;;;;;;;;;;;5066542;28;7524;-70
2023/04/09 19:18:06;;;;;;;;;;;;;;;;;;5066744;28;7555;-71
2023/04/09 19:20:31;;;;;;;;;;;;;;;;;;5066731;28;7629;-71
2023/04/09 19:22:57;;;;;;;;;;;;;;;;;;5067159;28;7588;-72
2023/04/09 19:25:22;;;;;;;;;;;;;;;;;;5066517;28;7539;-71
2023/04/09 19:27:48;;;;;;;;;;;;;;;;;;5066500;28;7543;-75
2023/04/09 19:30:13;;;;;;;;;;;;;;;;;;5066377;28;7529;-74
2023/04/09 19:32:38;;;;;;;;;;;;;;;;;;5064343;28;7543;-74
2023/04/09 19:35:05;;;;;;;;;;;;;;;;;;5066239;28;7631;-74
2023/04/09 19:37:30;;;;;;;;;;;;;;;;;;5081580;28;7536;-78
2023/04/09 19:39:56;;;;;;;;;;;;;;;;;;5058405;28;7586;-74
2023/04/09 19:42:21;;;;;;;;;;;;;;;;;;5046523;28;7532;-72
2023/04/09 19:44:46;;;;;;;;;;;;;;;;;;5041824;28;7555;-73
2023/04/09 19:47:11;;;;;;;;;;;;;;;;;;5052652;28;7525;-73
2023/04/09 19:49:37;;;;;;;;;;;;;;;;;;5055446;28;7533;-77
2023/04/09 19:52:05;;;;;;;;;;;;;;;;;;5052910;28;7533;-74
2023/04/09 19:54:30;;;;;;;;;;;;;;;;;;5052887;28;7520;-74
2023/04/09 19:56:55;;;;;;;;;;;;;;;;;;5052511;28;7533;-78
2023/04/09 19:59:20;;;;;;;;;;;;;;;;;;5057745;28;7545;-74
2023/04/09 20:01:47;;;;;;;;;;;;;;;;;;5061388;28;7528;-77
2023/04/09 20:04:12;;;;;;;;;;;;;;;;;;5061790;28;7619;-77
2023/04/09 20:06:37;;;;;;;;;;;;;;;;;;5063212;28;7536;-76
2023/04/09 20:09:03;;;;;;;;;;;;;;;;;;5061477;28;7532;-77
2023/04/09 20:11:28;;;;;;;;;;;;;;;;;;5062264;28;7972;-77
2023/04/09 20:13:53;;;;;;;;;;;;;;;;;;5062830;28;7521;-76
2023/04/09 20:16:18;;;;;;;;;;;;;;;;;;5061716;28;7547;-74
2023/04/09 20:18:43;;;;;;;;;;;;;;;;;;5061013;28;7535;-75
2023/04/09 20:21:12;;;;;;;;;;;;;;;;;;5063122;28;7706;-75
2023/04/09 20:23:38;;;;;;;;;;;;;;;;;;5073798;28;7544;-75
2023/04/09 20:26:03;;;;;;;;;;;;;;;;;;5062286;28;7563;-75
2023/04/09 20:28:28;;;;;;;;;;;;;;;;;;5060447;28;7537;-74
2023/04/09 20:30:53;;;;;;;;;;;;;;;;;;5061661;28;7536;-74
2023/04/09 20:33:18;;;;;;;;;;;;;;;;;;5061487;28;7540;-73
2023/04/09 20:35:44;;;;;;;;;;;;;;;;;;5060520;28;7552;-73
2023/04/09 20:38:09;;;;;;;;;;;;;;;;;;5063230;28;7513;-74
2023/04/09 20:40:34;;;;;;;;;;;;;;;;;;5061799;28;7537;-74
2023/04/09 20:43:00;;;;;;;;;;;;;;;;;;5061883;28;7525;-74
2023/04/09 20:45:25;;;;;;;;;;;;;;;;;;5060830;28;7544;-74
2023/04/09 20:47:50;;;;;;;;;;;;;;;;;;5060095;28;7960;-74
2023/04/09 20:50:16;;;;;;;;;;;;;;;;;;5065653;28;7528;-73
2023/04/09 20:52:42;;;;;;;;;;;;;;;;;;5070618;28;7573;-73
2023/04/09 20:55:07;;;;;;;;;;;;;;;;;;5071792;28;7517;-73
2023/04/09 20:57:32;;;;;;;;;;;;;;;;;;5071547;28;7969;-73
2023/04/09 20:59:57;;;;;;;;;;;;;;;;;;5059527;28;7533;-75
2023/04/09 21:02:23;;;;;;;;;;;;;;;;;;5040236;28;7529;-74
2023/04/09 21:04:48;;;;;;;;;;;;;;;;;;5031711;28;7525;-72
2023/04/09 21:07:13;;;;;;;;;;;;;;;;;;5031704;28;7541;-72
2023/04/09 21:09:38;;;;;;;;;;;;;;;;;;5031367;28;7536;-72
2023/04/09 21:12:03;;;;;;;;;;;;;;;;;;5031383;28;7533;-73
2023/04/09 21:14:28;;;;;;;;;;;;;;;;;;5033389;28;7611;-74
2023/04/09 21:16:54;;;;;;;;;;;;;;;;;;5051193;28;7552;-74
2023/04/09 21:19:19;;;;;;;;;;;;;;;;;;5051334;28;7520;-73
2023/04/09 21:21:45;;;;;;;;;;;;;;;;;;5051316;28;7528;-73
2023/04/09 21:24:10;;;;;;;;;;;;;;;;;;5051317;28;7968;-73
2023/04/09 21:26:35;;;;;;;;;;;;;;;;;;5049453;28;9726;-73
2023/04/09 21:29:00;;;;;;;;;;;;;;;;;;5050407;28;7689;-74
2023/04/09 21:31:25;;;;;;;;;;;;;;;;;;5049045;28;7525;-73
2023/04/09 21:33:51;;;;;;;;;;;;;;;;;;5050915;28;7541;-72
2023/04/09 21:36:16;;;;;;;;;;;;;;;;;;5050776;28;7957;-73
2023/04/09 21:38:41;;;;;;;;;;;;;;;;;;5049319;28;7547;-73
2023/04/09 21:41:06;;;;;;;;;;;;;;;;;;5044071;28;8006;-74
2023/04/09 21:43:31;;;;;;;;;;;;;;;;;;5032337;28;7525;-74
2023/04/09 21:45:56;;;;;;;;;;;;;;;;;;5044031;28;7525;-74
2023/04/09 21:48:22;;;;;;;;;;;;;;;;;;5048929;28;7525;-75
2023/04/09 21:50:47;;;;;;;;;;;;;;;;;;5050637;28;7536;-75
2023/04/09 21:53:12;;;;;;;;;;;;;;;;;;5050460;28;7529;-75
2023/04/09 21:55:37;;;;;;;;;;;;;;;;;;5048943;28;7521;-76
2023/04/09 21:58:03;;;;;;;;;;;;;;;;;;5050645;28;7529;-75
2023/04/09 22:00:28;;;;;;;;;;;;;;;;;;5050484;28;7532;-76
2023/04/09 22:02:59;;;;;;;;;;;;;;;;;;5050270;28;7555;-75
2023/04/09 22:05:25;;;;;;;;;;;;;;;;;;5050836;28;7601;-75
2023/04/09 22:07:50;;;;;;;;;;;;;;;;;;5050680;28;7533;-75
2023/04/09 22:10:15;;;;;;;;;;;;;;;;;;5050584;28;7517;-75
2023/04/09 22:12:41;;;;;;;;;;;;;;;;;;5050607;28;7536;-74
2023/04/09 22:15:06;;;;;;;;;;;;;;;;;;5050051;28;7543;-76
2023/04/09 22:17:31;;;;;;;;;;;;;;;;;;5050366;28;7521;-74
2023/04/09 22:19:56;;;;;;;;;;;;;;;;;;5049837;28;7529;-74
2023/04/09 22:22:21;;;;;;;;;;;;;;;;;;5050168;28;7535;-74
2023/04/09 22:24:46;;;;;;;;;;;;;;;;;;5050413;28;7529;-73
2023/04/09 22:27:11;;;;;;;;;;;;;;;;;;5049949;28;7525;-73
2023/04/09 22:29:37;;;;;;;;;;;;;;;;;;5050471;28;7537;-74
2023/04/09 22:32:02;;;;;;;;;;;;;;;;;;5050226;28;7525;-75
2023/04/09 22:34:27;;;;;;;;;;;;;;;;;;5050242;28;7580;-73
2023/04/09 22:36:53;;;;;;;;;;;;;;;;;;5049818;28;7524;-74
2023/04/09 22:39:18;;;;;;;;;;;;;;;;;;5050185;28;7917;-74
2023/04/09 22:41:43;;;;;;;;;;;;;;;;;;5050230;28;7560;-73
2023/04/09 22:44:08;;;;;;;;;;;;;;;;;;5050228;28;7532;-73
2023/04/09 22:46:33;;;;;;;;;;;;;;;;;;5049866;28;7537;-75
2023/04/09 22:48:58;;;;;;;;;;;;;;;;;;5050232;28;7587;-75
2023/04/09 22:51:23;;;;;;;;;;;;;;;;;;5050330;28;7524;-73
2023/04/09 22:53:49;;;;;;;;;;;;;;;;;;5048684;28;7517;-75
2023/04/09 22:56:14;;;;;;;;;;;;;;;;;;5049890;28;7616;-74
2023/04/09 22:58:39;;;;;;;;;;;;;;;;;;5050075;28;7532;-73
2023/04/09 23:01:05;;;;;;;;;;;;;;;;;;5049918;28;7521;-74
2023/04/09 23:03:30;;;;;;;;;;;;;;;;;;5048690;28;7517;-74
2023/04/09 23:05:55;;;;;;;;;;;;;;;;;;5050364;28;7528;-74
2023/04/09 23:08:20;;;;;;;;;;;;;;;;;;5050362;28;7929;-74
2023/04/09 23:10:45;;;;;;;;;;;;;;;;;;5050118;28;7529;-74
2023/04/09 23:13:12;;;;;;;;;;;;;;;;;;5049971;28;7525;-74
2023/04/09 23:15:37;;;;;;;;;;;;;;;;;;5051909;28;7528;-74
2023/04/09 23:18:03;;;;;;;;;;;;;;;;;;5052228;28;7519;-74
2023/04/09 23:20:28;;;;;;;;;;;;;;;;;;5053687;28;7575;-74
2023/04/09 23:22:53;;;;;;;;;;;;;;;;;;5053605;28;7517;-74
2023/04/09 23:25:19;;;;;;;;;;;;;;;;;;5053406;28;7524;-74
2023/04/09 23:27:45;;;;;;;;;;;;;;;;;;5051921;28;7549;-74
2023/04/09 23:30:15;;;;;;;;;;;;;;;;;;5053732;28;7657;-74
2023/04/09 23:32:40;;;;;;;;;;;;;;;;;;5051942;28;7532;-74
2023/04/09 23:35:05;;;;;;;;;;;;;;;;;;5053021;28;7587;-73
2023/04/09 23:37:30;;;;;;;;;;;;;;;;;;5053104;28;7533;-73
2023/04/09 23:39:55;;;;;;;;;;;;;;;;;;5051778;28;7604;-74
2023/04/09 23:42:20;;;;;;;;;;;;;;;;;;5053353;28;7584;-74
2023/04/09 23:44:46;;;;;;;;;;;;;;;;;;5053196;28;7533;-74
2023/04/09 23:47:12;;;;;;;;;;;;;;;;;;5052954;28;7547;-73
2023/04/09 23:49:37;;;;;;;;;;;;;;;;;;5053192;28;7579;-74
2023/04/09 23:52:02;;;;;;;;;;;;;;;;;;5054682;28;7533;-74
2023/04/09 23:54:28;;;;;;;;;;;;;;;;;;5053399;28;7533;-74
2023/04/09 23:56:53;;;;;;;;;;;;;;;;;;5052906;28;7532;-74
2023/04/09 23:59:18;;;;;;;;;;;;;;;;;;5052854;28;7532;-74
